sensor_id;sensor_type;location;lat;lon;timestamp;temperature;humidity
12682;DHT22;6405;59.208;18.216;2024-02-26T00:02:00;-0.50;99.90
12682;DHT22;6405;59.208;18.216;2024-02-26T00:04:26;-0.50;99.90
12682;DHT22;6405;59.208;18.216;2024-02-26T00:06:51;-0.50;99.90
12682;DHT22;6405;59.208;18.216;2024-02-26T00:09:19;-0.60;99.90
12682;DHT22;6405;59.208;18.216;2024-02-26T00:11:45;-0.50;99.90
12682;DHT22;6405;59.208;18.216;2024-02-26T00:14:10;-0.50;99.90
12682;DHT22;6405;59.208;18.216;2024-02-26T00:16:36;-0.60;99.90
12682;DHT22;6405;59.208;18.216;2024-02-26T00:19:05;-0.50;99.90
12682;DHT22;6405;59.208;18.216;2024-02-26T00:21:30;-0.50;99.90
12682;DHT22;6405;59.208;18.216;2024-02-26T00:23:56;-0.50;99.90
12682;DHT22;6405;59.208;18.216;2024-02-26T00:26:21;-0.60;99.90
12682;DHT22;6405;59.208;18.216;2024-02-26T00:28:47;-0.60;99.90
12682;DHT22;6405;59.208;18.216;2024-02-26T00:31:13;-0.60;99.90
12682;DHT22;6405;59.208;18.216;2024-02-26T00:33:39;-0.50;99.90
12682;DHT22;6405;59.208;18.216;2024-02-26T00:36:05;-0.50;99.90
12682;DHT22;6405;59.208;18.216;2024-02-26T00:38:31;-0.50;99.90
12682;DHT22;6405;59.208;18.216;2024-02-26T00:40:56;-0.50;99.90
12682;DHT22;6405;59.208;18.216;2024-02-26T00:43:22;-0.40;99.90
12682;DHT22;6405;59.208;18.216;2024-02-26T00:45:48;-0.30;99.90
12682;DHT22;6405;59.208;18.216;2024-02-26T00:48:13;-0.40;99.90
12682;DHT22;6405;59.208;18.216;2024-02-26T00:50:39;-0.40;99.90
12682;DHT22;6405;59.208;18.216;2024-02-26T00:53:05;-0.40;99.90
12682;DHT22;6405;59.208;18.216;2024-02-26T00:55:31;-0.40;99.90
12682;DHT22;6405;59.208;18.216;2024-02-26T00:57:57;-0.40;99.90
12682;DHT22;6405;59.208;18.216;2024-02-26T01:00:22;-0.40;99.90
12682;DHT22;6405;59.208;18.216;2024-02-26T01:02:48;-0.30;99.90
12682;DHT22;6405;59.208;18.216;2024-02-26T01:05:14;-0.10;99.90
12682;DHT22;6405;59.208;18.216;2024-02-26T01:07:40;-0.30;99.90
12682;DHT22;6405;59.208;18.216;2024-02-26T01:10:06;-0.30;99.90
12682;DHT22;6405;59.208;18.216;2024-02-26T01:12:35;-0.30;99.90
12682;DHT22;6405;59.208;18.216;2024-02-26T01:15:02;-0.20;99.90
12682;DHT22;6405;59.208;18.216;2024-02-26T01:17:29;-0.20;99.90
12682;DHT22;6405;59.208;18.216;2024-02-26T01:19:54;-0.10;99.90
12682;DHT22;6405;59.208;18.216;2024-02-26T01:22:20;-0.10;99.90
12682;DHT22;6405;59.208;18.216;2024-02-26T01:24:46;-0.10;99.90
12682;DHT22;6405;59.208;18.216;2024-02-26T01:27:12;0.00;99.90
12682;DHT22;6405;59.208;18.216;2024-02-26T01:29:39;0.00;99.90
12682;DHT22;6405;59.208;18.216;2024-02-26T01:32:05;0.00;99.90
12682;DHT22;6405;59.208;18.216;2024-02-26T01:34:31;0.00;99.90
12682;DHT22;6405;59.208;18.216;2024-02-26T01:36:57;0.20;99.90
12682;DHT22;6405;59.208;18.216;2024-02-26T01:39:23;0.30;99.90
12682;DHT22;6405;59.208;18.216;2024-02-26T01:41:48;0.10;99.90
12682;DHT22;6405;59.208;18.216;2024-02-26T01:44:14;0.10;99.90
12682;DHT22;6405;59.208;18.216;2024-02-26T01:46:40;0.20;99.90
12682;DHT22;6405;59.208;18.216;2024-02-26T01:49:06;0.20;99.90
12682;DHT22;6405;59.208;18.216;2024-02-26T01:51:35;0.20;99.90
12682;DHT22;6405;59.208;18.216;2024-02-26T01:54:02;0.20;99.90
12682;DHT22;6405;59.208;18.216;2024-02-26T01:56:29;0.20;99.90
12682;DHT22;6405;59.208;18.216;2024-02-26T01:59:01;0.20;99.90
12682;DHT22;6405;59.208;18.216;2024-02-26T02:01:31;0.30;99.90
12682;DHT22;6405;59.208;18.216;2024-02-26T02:03:58;0.30;99.90
12682;DHT22;6405;59.208;18.216;2024-02-26T02:06:25;0.20;99.90
12682;DHT22;6405;59.208;18.216;2024-02-26T02:08:52;0.50;99.90
12682;DHT22;6405;59.208;18.216;2024-02-26T02:11:18;0.30;99.90
12682;DHT22;6405;59.208;18.216;2024-02-26T02:13:44;0.30;99.90
12682;DHT22;6405;59.208;18.216;2024-02-26T02:16:09;0.30;99.90
12682;DHT22;6405;59.208;18.216;2024-02-26T02:18:35;0.30;99.90
12682;DHT22;6405;59.208;18.216;2024-02-26T02:21:01;0.30;99.90
12682;DHT22;6405;59.208;18.216;2024-02-26T02:23:27;0.40;99.90
12682;DHT22;6405;59.208;18.216;2024-02-26T02:25:53;0.40;99.90
12682;DHT22;6405;59.208;18.216;2024-02-26T02:28:21;0.40;99.90
12682;DHT22;6405;59.208;18.216;2024-02-26T02:30:47;0.40;99.90
12682;DHT22;6405;59.208;18.216;2024-02-26T02:33:15;0.40;99.90
12682;DHT22;6405;59.208;18.216;2024-02-26T02:35:41;0.40;99.90
12682;DHT22;6405;59.208;18.216;2024-02-26T02:38:07;0.60;99.90
12682;DHT22;6405;59.208;18.216;2024-02-26T02:40:32;0.40;99.90
12682;DHT22;6405;59.208;18.216;2024-02-26T02:42:58;0.40;99.90
12682;DHT22;6405;59.208;18.216;2024-02-26T02:45:25;0.40;99.90
12682;DHT22;6405;59.208;18.216;2024-02-26T02:47:51;0.40;99.90
12682;DHT22;6405;59.208;18.216;2024-02-26T02:50:17;0.40;99.90
12682;DHT22;6405;59.208;18.216;2024-02-26T02:52:42;0.40;99.90
12682;DHT22;6405;59.208;18.216;2024-02-26T02:55:08;0.70;99.90
12682;DHT22;6405;59.208;18.216;2024-02-26T02:57:34;0.50;99.90
12682;DHT22;6405;59.208;18.216;2024-02-26T03:00:00;0.40;99.90
12682;DHT22;6405;59.208;18.216;2024-02-26T03:02:25;0.50;99.90
12682;DHT22;6405;59.208;18.216;2024-02-26T03:04:51;0.50;99.90
12682;DHT22;6405;59.208;18.216;2024-02-26T03:07:17;0.50;99.90
12682;DHT22;6405;59.208;18.216;2024-02-26T03:09:43;0.50;99.90
12682;DHT22;6405;59.208;18.216;2024-02-26T03:12:08;0.50;99.90
12682;DHT22;6405;59.208;18.216;2024-02-26T03:14:34;0.40;99.90
12682;DHT22;6405;59.208;18.216;2024-02-26T03:17:00;0.40;99.90
12682;DHT22;6405;59.208;18.216;2024-02-26T03:19:26;0.40;99.90
12682;DHT22;6405;59.208;18.216;2024-02-26T03:21:51;0.40;99.90
12682;DHT22;6405;59.208;18.216;2024-02-26T03:24:17;0.40;99.90
12682;DHT22;6405;59.208;18.216;2024-02-26T03:26:43;0.40;99.90
12682;DHT22;6405;59.208;18.216;2024-02-26T03:29:08;0.40;99.90
12682;DHT22;6405;59.208;18.216;2024-02-26T03:31:34;0.40;99.90
12682;DHT22;6405;59.208;18.216;2024-02-26T03:34:00;0.40;99.90
12682;DHT22;6405;59.208;18.216;2024-02-26T03:36:25;0.30;99.90
12682;DHT22;6405;59.208;18.216;2024-02-26T03:38:52;0.40;99.90
12682;DHT22;6405;59.208;18.216;2024-02-26T03:41:18;0.30;99.90
12682;DHT22;6405;59.208;18.216;2024-02-26T03:43:43;0.30;99.90
12682;DHT22;6405;59.208;18.216;2024-02-26T03:46:10;0.40;99.90
12682;DHT22;6405;59.208;18.216;2024-02-26T03:48:40;0.30;99.90
12682;DHT22;6405;59.208;18.216;2024-02-26T03:51:05;0.30;99.90
12682;DHT22;6405;59.208;18.216;2024-02-26T03:53:31;0.30;99.90
12682;DHT22;6405;59.208;18.216;2024-02-26T03:55:57;0.30;99.90
12682;DHT22;6405;59.208;18.216;2024-02-26T03:58:22;0.40;99.90
12682;DHT22;6405;59.208;18.216;2024-02-26T04:00:48;0.30;99.90
12682;DHT22;6405;59.208;18.216;2024-02-26T04:03:31;0.30;99.90
12682;DHT22;6405;59.208;18.216;2024-02-26T04:05:56;0.40;99.90
12682;DHT22;6405;59.208;18.216;2024-02-26T04:08:22;0.20;99.90
12682;DHT22;6405;59.208;18.216;2024-02-26T04:10:48;0.20;99.90
12682;DHT22;6405;59.208;18.216;2024-02-26T04:13:14;0.20;99.90
12682;DHT22;6405;59.208;18.216;2024-02-26T04:15:40;0.40;99.90
12682;DHT22;6405;59.208;18.216;2024-02-26T04:18:05;0.20;99.90
12682;DHT22;6405;59.208;18.216;2024-02-26T04:20:31;0.10;99.90
12682;DHT22;6405;59.208;18.216;2024-02-26T04:22:57;0.20;99.90
12682;DHT22;6405;59.208;18.216;2024-02-26T04:25:23;0.10;99.90
12682;DHT22;6405;59.208;18.216;2024-02-26T04:27:48;0.20;99.90
12682;DHT22;6405;59.208;18.216;2024-02-26T04:30:14;0.20;99.90
12682;DHT22;6405;59.208;18.216;2024-02-26T04:32:40;0.10;99.90
12682;DHT22;6405;59.208;18.216;2024-02-26T04:35:06;0.10;99.90
12682;DHT22;6405;59.208;18.216;2024-02-26T04:37:31;0.10;99.90
12682;DHT22;6405;59.208;18.216;2024-02-26T04:40:01;0.10;99.90
12682;DHT22;6405;59.208;18.216;2024-02-26T04:42:27;0.10;99.90
12682;DHT22;6405;59.208;18.216;2024-02-26T04:44:54;0.10;99.90
12682;DHT22;6405;59.208;18.216;2024-02-26T04:47:20;0.10;99.90
12682;DHT22;6405;59.208;18.216;2024-02-26T04:49:49;0.10;99.90
12682;DHT22;6405;59.208;18.216;2024-02-26T04:52:14;0.10;99.90
12682;DHT22;6405;59.208;18.216;2024-02-26T04:54:40;0.10;99.90
12682;DHT22;6405;59.208;18.216;2024-02-26T04:57:06;0.10;99.90
12682;DHT22;6405;59.208;18.216;2024-02-26T04:59:31;0.10;99.90
12682;DHT22;6405;59.208;18.216;2024-02-26T05:01:57;0.10;99.90
12682;DHT22;6405;59.208;18.216;2024-02-26T05:04:23;0.10;99.90
12682;DHT22;6405;59.208;18.216;2024-02-26T05:06:48;0.10;99.90
12682;DHT22;6405;59.208;18.216;2024-02-26T05:09:14;0.10;99.90
12682;DHT22;6405;59.208;18.216;2024-02-26T05:11:40;0.10;99.90
12682;DHT22;6405;59.208;18.216;2024-02-26T05:14:06;0.10;99.90
12682;DHT22;6405;59.208;18.216;2024-02-26T05:16:31;0.30;99.90
12682;DHT22;6405;59.208;18.216;2024-02-26T05:18:57;0.10;99.90
12682;DHT22;6405;59.208;18.216;2024-02-26T05:21:23;0.10;99.90
12682;DHT22;6405;59.208;18.216;2024-02-26T05:23:49;0.00;99.90
12682;DHT22;6405;59.208;18.216;2024-02-26T05:26:22;0.00;99.90
12682;DHT22;6405;59.208;18.216;2024-02-26T05:28:48;0.00;99.90
12682;DHT22;6405;59.208;18.216;2024-02-26T05:31:14;0.00;99.90
12682;DHT22;6405;59.208;18.216;2024-02-26T05:33:40;0.00;99.90
12682;DHT22;6405;59.208;18.216;2024-02-26T05:36:06;0.00;99.90
12682;DHT22;6405;59.208;18.216;2024-02-26T05:38:32;0.00;99.90
12682;DHT22;6405;59.208;18.216;2024-02-26T05:40:58;-0.10;99.90
12682;DHT22;6405;59.208;18.216;2024-02-26T05:43:25;0.00;99.90
12682;DHT22;6405;59.208;18.216;2024-02-26T05:45:51;0.20;99.90
12682;DHT22;6405;59.208;18.216;2024-02-26T05:48:16;0.00;99.90
12682;DHT22;6405;59.208;18.216;2024-02-26T05:50:42;0.00;99.90
12682;DHT22;6405;59.208;18.216;2024-02-26T05:53:08;0.00;99.90
12682;DHT22;6405;59.208;18.216;2024-02-26T05:55:34;0.00;99.90
12682;DHT22;6405;59.208;18.216;2024-02-26T05:57:59;0.00;99.90
12682;DHT22;6405;59.208;18.216;2024-02-26T06:00:25;0.00;99.90
12682;DHT22;6405;59.208;18.216;2024-02-26T06:02:50;0.00;99.90
12682;DHT22;6405;59.208;18.216;2024-02-26T06:05:16;0.20;99.90
12682;DHT22;6405;59.208;18.216;2024-02-26T06:07:42;0.00;99.90
12682;DHT22;6405;59.208;18.216;2024-02-26T06:10:08;0.00;99.90
12682;DHT22;6405;59.208;18.216;2024-02-26T06:12:36;0.00;99.90
12682;DHT22;6405;59.208;18.216;2024-02-26T06:15:03;0.00;99.90
12682;DHT22;6405;59.208;18.216;2024-02-26T06:17:29;0.00;99.90
12682;DHT22;6405;59.208;18.216;2024-02-26T06:19:55;0.00;99.90
12682;DHT22;6405;59.208;18.216;2024-02-26T06:22:21;0.00;99.90
12682;DHT22;6405;59.208;18.216;2024-02-26T06:24:46;0.00;99.90
12682;DHT22;6405;59.208;18.216;2024-02-26T06:27:12;0.00;99.90
12682;DHT22;6405;59.208;18.216;2024-02-26T06:29:38;0.00;99.90
12682;DHT22;6405;59.208;18.216;2024-02-26T06:32:05;0.00;99.90
12682;DHT22;6405;59.208;18.216;2024-02-26T06:34:31;0.00;99.90
12682;DHT22;6405;59.208;18.216;2024-02-26T06:36:56;0.00;99.90
12682;DHT22;6405;59.208;18.216;2024-02-26T06:39:22;0.00;99.90
12682;DHT22;6405;59.208;18.216;2024-02-26T06:41:47;0.10;99.90
12682;DHT22;6405;59.208;18.216;2024-02-26T06:44:14;0.10;99.90
12682;DHT22;6405;59.208;18.216;2024-02-26T06:46:40;0.10;99.90
12682;DHT22;6405;59.208;18.216;2024-02-26T06:49:05;0.10;99.90
12682;DHT22;6405;59.208;18.216;2024-02-26T06:51:31;0.10;99.90
12682;DHT22;6405;59.208;18.216;2024-02-26T06:53:57;0.10;99.90
12682;DHT22;6405;59.208;18.216;2024-02-26T06:56:23;0.10;99.90
12682;DHT22;6405;59.208;18.216;2024-02-26T06:58:49;0.40;99.90
12682;DHT22;6405;59.208;18.216;2024-02-26T07:01:14;0.20;99.90
12682;DHT22;6405;59.208;18.216;2024-02-26T07:03:40;0.30;99.90
12682;DHT22;6405;59.208;18.216;2024-02-26T07:06:06;0.30;99.90
12682;DHT22;6405;59.208;18.216;2024-02-26T07:08:32;0.30;99.90
12682;DHT22;6405;59.208;18.216;2024-02-26T07:10:58;0.30;99.90
12682;DHT22;6405;59.208;18.216;2024-02-26T07:13:23;0.40;99.90
12682;DHT22;6405;59.208;18.216;2024-02-26T07:15:49;0.40;99.90
12682;DHT22;6405;59.208;18.216;2024-02-26T07:18:15;0.50;99.90
12682;DHT22;6405;59.208;18.216;2024-02-26T07:20:40;0.50;99.90
12682;DHT22;6405;59.208;18.216;2024-02-26T07:23:06;0.50;99.90
12682;DHT22;6405;59.208;18.216;2024-02-26T07:25:32;0.50;99.90
12682;DHT22;6405;59.208;18.216;2024-02-26T07:27:58;0.50;99.90
12682;DHT22;6405;59.208;18.216;2024-02-26T07:30:23;0.60;99.90
12682;DHT22;6405;59.208;18.216;2024-02-26T07:32:50;0.60;99.90
12682;DHT22;6405;59.208;18.216;2024-02-26T07:35:16;0.60;99.90
12682;DHT22;6405;59.208;18.216;2024-02-26T07:37:43;0.60;99.90
12682;DHT22;6405;59.208;18.216;2024-02-26T07:40:09;0.70;99.90
12682;DHT22;6405;59.208;18.216;2024-02-26T07:42:35;0.70;99.90
12682;DHT22;6405;59.208;18.216;2024-02-26T07:45:02;0.80;99.90
12682;DHT22;6405;59.208;18.216;2024-02-26T07:47:27;0.90;99.90
12682;DHT22;6405;59.208;18.216;2024-02-26T07:49:53;1.00;99.90
12682;DHT22;6405;59.208;18.216;2024-02-26T07:52:19;1.00;99.90
12682;DHT22;6405;59.208;18.216;2024-02-26T07:54:44;1.10;99.90
12682;DHT22;6405;59.208;18.216;2024-02-26T07:57:10;1.20;99.90
12682;DHT22;6405;59.208;18.216;2024-02-26T07:59:36;1.20;99.90
12682;DHT22;6405;59.208;18.216;2024-02-26T08:02:01;1.20;99.90
12682;DHT22;6405;59.208;18.216;2024-02-26T08:04:29;1.40;99.90
12682;DHT22;6405;59.208;18.216;2024-02-26T08:06:55;1.50;99.90
12682;DHT22;6405;59.208;18.216;2024-02-26T08:09:20;1.50;99.90
12682;DHT22;6405;59.208;18.216;2024-02-26T08:11:46;1.50;99.90
12682;DHT22;6405;59.208;18.216;2024-02-26T08:14:12;1.50;99.90
12682;DHT22;6405;59.208;18.216;2024-02-26T08:16:37;1.50;99.90
12682;DHT22;6405;59.208;18.216;2024-02-26T08:19:03;1.50;99.90
12682;DHT22;6405;59.208;18.216;2024-02-26T08:21:29;1.60;99.90
12682;DHT22;6405;59.208;18.216;2024-02-26T08:23:54;1.60;99.90
12682;DHT22;6405;59.208;18.216;2024-02-26T08:26:20;1.70;99.90
12682;DHT22;6405;59.208;18.216;2024-02-26T08:28:48;1.60;99.90
12682;DHT22;6405;59.208;18.216;2024-02-26T08:31:14;1.60;99.90
12682;DHT22;6405;59.208;18.216;2024-02-26T08:33:40;1.60;99.90
12682;DHT22;6405;59.208;18.216;2024-02-26T08:36:06;1.60;99.90
12682;DHT22;6405;59.208;18.216;2024-02-26T08:38:32;1.60;99.90
12682;DHT22;6405;59.208;18.216;2024-02-26T08:41:00;1.60;99.90
12682;DHT22;6405;59.208;18.216;2024-02-26T08:43:26;1.60;99.90
12682;DHT22;6405;59.208;18.216;2024-02-26T08:45:52;1.60;99.90
12682;DHT22;6405;59.208;18.216;2024-02-26T08:48:18;1.70;99.90
12682;DHT22;6405;59.208;18.216;2024-02-26T08:50:44;1.70;99.90
12682;DHT22;6405;59.208;18.216;2024-02-26T08:53:09;1.70;99.90
12682;DHT22;6405;59.208;18.216;2024-02-26T08:55:35;1.70;99.90
12682;DHT22;6405;59.208;18.216;2024-02-26T08:58:01;1.70;99.90
12682;DHT22;6405;59.208;18.216;2024-02-26T09:00:26;1.70;99.90
12682;DHT22;6405;59.208;18.216;2024-02-26T09:02:52;1.90;99.90
12682;DHT22;6405;59.208;18.216;2024-02-26T09:05:18;1.80;99.90
12682;DHT22;6405;59.208;18.216;2024-02-26T09:07:44;1.80;99.90
12682;DHT22;6405;59.208;18.216;2024-02-26T09:10:09;1.80;99.90
12682;DHT22;6405;59.208;18.216;2024-02-26T09:12:37;1.90;99.90
12682;DHT22;6405;59.208;18.216;2024-02-26T09:15:03;1.90;99.90
12682;DHT22;6405;59.208;18.216;2024-02-26T09:17:29;2.00;99.90
12682;DHT22;6405;59.208;18.216;2024-02-26T09:19:55;2.00;99.90
12682;DHT22;6405;59.208;18.216;2024-02-26T09:22:21;2.10;99.90
12682;DHT22;6405;59.208;18.216;2024-02-26T09:24:46;2.10;99.90
12682;DHT22;6405;59.208;18.216;2024-02-26T09:27:12;2.10;99.90
12682;DHT22;6405;59.208;18.216;2024-02-26T09:29:38;2.20;99.90
12682;DHT22;6405;59.208;18.216;2024-02-26T09:32:04;2.30;99.90
12682;DHT22;6405;59.208;18.216;2024-02-26T09:34:29;2.30;99.90
12682;DHT22;6405;59.208;18.216;2024-02-26T09:36:55;2.40;99.90
12682;DHT22;6405;59.208;18.216;2024-02-26T09:39:21;2.40;99.90
12682;DHT22;6405;59.208;18.216;2024-02-26T09:41:48;2.40;99.90
12682;DHT22;6405;59.208;18.216;2024-02-26T09:44:19;2.50;99.90
12682;DHT22;6405;59.208;18.216;2024-02-26T09:46:49;2.60;99.90
12682;DHT22;6405;59.208;18.216;2024-02-26T09:49:15;2.60;99.90
12682;DHT22;6405;59.208;18.216;2024-02-26T09:51:42;2.70;99.90
12682;DHT22;6405;59.208;18.216;2024-02-26T09:54:09;2.80;99.90
12682;DHT22;6405;59.208;18.216;2024-02-26T09:56:37;2.80;99.90
12682;DHT22;6405;59.208;18.216;2024-02-26T09:59:08;2.90;99.90
12682;DHT22;6405;59.208;18.216;2024-02-26T10:01:37;2.90;99.90
12682;DHT22;6405;59.208;18.216;2024-02-26T10:04:04;3.00;99.90
12682;DHT22;6405;59.208;18.216;2024-02-26T10:06:30;3.20;99.90
12682;DHT22;6405;59.208;18.216;2024-02-26T10:08:56;3.20;99.90
12682;DHT22;6405;59.208;18.216;2024-02-26T10:11:24;3.50;99.90
12682;DHT22;6405;59.208;18.216;2024-02-26T10:13:50;3.50;99.90
12682;DHT22;6405;59.208;18.216;2024-02-26T10:16:16;3.60;99.90
12682;DHT22;6405;59.208;18.216;2024-02-26T10:18:49;3.70;99.90
12682;DHT22;6405;59.208;18.216;2024-02-26T10:21:19;3.50;99.90
12682;DHT22;6405;59.208;18.216;2024-02-26T10:23:45;3.50;99.90
12682;DHT22;6405;59.208;18.216;2024-02-26T10:26:13;3.50;99.90
12682;DHT22;6405;59.208;18.216;2024-02-26T10:28:40;3.50;99.90
12682;DHT22;6405;59.208;18.216;2024-02-26T10:31:06;3.40;99.90
12682;DHT22;6405;59.208;18.216;2024-02-26T10:33:36;3.60;99.90
12682;DHT22;6405;59.208;18.216;2024-02-26T10:36:06;3.40;99.90
12682;DHT22;6405;59.208;18.216;2024-02-26T10:38:36;3.50;99.90
12682;DHT22;6405;59.208;18.216;2024-02-26T10:41:03;3.70;99.90
12682;DHT22;6405;59.208;18.216;2024-02-26T10:43:29;3.70;99.90
12682;DHT22;6405;59.208;18.216;2024-02-26T10:45:55;3.70;99.90
12682;DHT22;6405;59.208;18.216;2024-02-26T10:48:21;3.60;99.90
12682;DHT22;6405;59.208;18.216;2024-02-26T10:50:48;3.70;99.90
12682;DHT22;6405;59.208;18.216;2024-02-26T10:53:20;3.70;99.90
12682;DHT22;6405;59.208;18.216;2024-02-26T10:55:49;3.70;99.90
12682;DHT22;6405;59.208;18.216;2024-02-26T10:58:16;3.80;99.90
12682;DHT22;6405;59.208;18.216;2024-02-26T11:00:43;3.80;99.90
12682;DHT22;6405;59.208;18.216;2024-02-26T11:03:09;3.70;99.90
12682;DHT22;6405;59.208;18.216;2024-02-26T11:05:36;3.70;99.90
12682;DHT22;6405;59.208;18.216;2024-02-26T11:08:04;3.80;99.90
12682;DHT22;6405;59.208;18.216;2024-02-26T11:10:30;4.00;99.90
12682;DHT22;6405;59.208;18.216;2024-02-26T11:12:56;4.10;99.90
12682;DHT22;6405;59.208;18.216;2024-02-26T11:15:23;4.10;99.90
12682;DHT22;6405;59.208;18.216;2024-02-26T11:17:52;4.10;99.90
12682;DHT22;6405;59.208;18.216;2024-02-26T11:20:19;4.10;99.90
12682;DHT22;6405;59.208;18.216;2024-02-26T11:22:45;4.10;99.90
12682;DHT22;6405;59.208;18.216;2024-02-26T11:25:11;4.20;99.90
12682;DHT22;6405;59.208;18.216;2024-02-26T11:27:48;4.30;99.90
12682;DHT22;6405;59.208;18.216;2024-02-26T11:30:15;4.30;99.90
12682;DHT22;6405;59.208;18.216;2024-02-26T11:32:47;4.30;99.90
12682;DHT22;6405;59.208;18.216;2024-02-26T11:35:13;4.30;99.90
12682;DHT22;6405;59.208;18.216;2024-02-26T11:37:41;4.30;99.90
12682;DHT22;6405;59.208;18.216;2024-02-26T11:40:14;4.30;99.90
12682;DHT22;6405;59.208;18.216;2024-02-26T11:42:44;4.40;99.90
12682;DHT22;6405;59.208;18.216;2024-02-26T11:48:23;4.40;99.90
12682;DHT22;6405;59.208;18.216;2024-02-26T11:50:51;4.30;99.90
12682;DHT22;6405;59.208;18.216;2024-02-26T11:53:27;4.20;99.90
12682;DHT22;6405;59.208;18.216;2024-02-26T11:58:41;4.30;99.90
12682;DHT22;6405;59.208;18.216;2024-02-26T12:01:39;4.30;99.90
12682;DHT22;6405;59.208;18.216;2024-02-26T12:04:28;4.30;99.90
12682;DHT22;6405;59.208;18.216;2024-02-26T12:07:00;4.30;99.90
12682;DHT22;6405;59.208;18.216;2024-02-26T12:09:40;4.30;99.90
12682;DHT22;6405;59.208;18.216;2024-02-26T12:12:10;4.30;99.90
12682;DHT22;6405;59.208;18.216;2024-02-26T12:14:40;4.30;99.90
12682;DHT22;6405;59.208;18.216;2024-02-26T12:17:08;4.20;99.90
12682;DHT22;6405;59.208;18.216;2024-02-26T12:19:44;4.20;99.90
12682;DHT22;6405;59.208;18.216;2024-02-26T12:22:13;4.20;99.90
12682;DHT22;6405;59.208;18.216;2024-02-26T12:24:40;4.20;99.90
12682;DHT22;6405;59.208;18.216;2024-02-26T12:27:05;4.20;99.90
12682;DHT22;6405;59.208;18.216;2024-02-26T12:29:31;4.10;99.90
12682;DHT22;6405;59.208;18.216;2024-02-26T12:31:57;4.10;99.90
12682;DHT22;6405;59.208;18.216;2024-02-26T12:34:23;4.10;99.90
12682;DHT22;6405;59.208;18.216;2024-02-26T12:36:49;4.10;99.90
12682;DHT22;6405;59.208;18.216;2024-02-26T12:39:15;4.20;99.90
12682;DHT22;6405;59.208;18.216;2024-02-26T12:41:40;4.30;99.90
12682;DHT22;6405;59.208;18.216;2024-02-26T12:44:08;4.40;99.90
12682;DHT22;6405;59.208;18.216;2024-02-26T12:46:33;4.40;99.90
12682;DHT22;6405;59.208;18.216;2024-02-26T12:48:59;4.40;99.90
12682;DHT22;6405;59.208;18.216;2024-02-26T12:51:26;4.30;99.90
12682;DHT22;6405;59.208;18.216;2024-02-26T12:53:53;4.20;99.90
12682;DHT22;6405;59.208;18.216;2024-02-26T12:56:19;4.20;99.90
12682;DHT22;6405;59.208;18.216;2024-02-26T12:58:45;4.20;99.90
12682;DHT22;6405;59.208;18.216;2024-02-26T13:01:17;4.20;99.90
12682;DHT22;6405;59.208;18.216;2024-02-26T13:03:43;4.20;99.90
12682;DHT22;6405;59.208;18.216;2024-02-26T13:06:09;4.20;99.90
12682;DHT22;6405;59.208;18.216;2024-02-26T13:08:36;4.10;99.90
12682;DHT22;6405;59.208;18.216;2024-02-26T13:11:01;4.20;99.90
12682;DHT22;6405;59.208;18.216;2024-02-26T13:13:28;4.20;99.90
12682;DHT22;6405;59.208;18.216;2024-02-26T13:16:07;4.20;99.90
12682;DHT22;6405;59.208;18.216;2024-02-26T13:18:34;4.10;99.90
12682;DHT22;6405;59.208;18.216;2024-02-26T13:21:10;4.10;99.90
12682;DHT22;6405;59.208;18.216;2024-02-26T13:23:37;4.10;99.90
12682;DHT22;6405;59.208;18.216;2024-02-26T13:26:04;4.10;99.90
12682;DHT22;6405;59.208;18.216;2024-02-26T13:28:29;4.10;99.90
12682;DHT22;6405;59.208;18.216;2024-02-26T13:30:56;4.00;99.90
12682;DHT22;6405;59.208;18.216;2024-02-26T13:33:26;4.00;99.90
12682;DHT22;6405;59.208;18.216;2024-02-26T13:35:53;4.00;99.90
12682;DHT22;6405;59.208;18.216;2024-02-26T13:38:19;4.20;99.90
12682;DHT22;6405;59.208;18.216;2024-02-26T13:40:45;4.00;99.90
12682;DHT22;6405;59.208;18.216;2024-02-26T13:43:11;4.00;99.90
12682;DHT22;6405;59.208;18.216;2024-02-26T13:45:38;4.00;99.90
12682;DHT22;6405;59.208;18.216;2024-02-26T13:48:06;4.00;99.90
12682;DHT22;6405;59.208;18.216;2024-02-26T13:50:32;4.00;99.90
12682;DHT22;6405;59.208;18.216;2024-02-26T13:52:58;4.00;99.90
12682;DHT22;6405;59.208;18.216;2024-02-26T13:55:27;3.90;99.90
12682;DHT22;6405;59.208;18.216;2024-02-26T13:57:58;4.00;99.90
12682;DHT22;6405;59.208;18.216;2024-02-26T14:00:24;3.90;99.90
12682;DHT22;6405;59.208;18.216;2024-02-26T14:02:50;3.80;99.90
12682;DHT22;6405;59.208;18.216;2024-02-26T14:05:16;4.00;99.90
12682;DHT22;6405;59.208;18.216;2024-02-26T14:07:42;4.00;99.90
12682;DHT22;6405;59.208;18.216;2024-02-26T14:10:12;3.80;99.90
12682;DHT22;6405;59.208;18.216;2024-02-26T14:12:38;4.10;99.90
12682;DHT22;6405;59.208;18.216;2024-02-26T14:15:06;3.80;99.90
12682;DHT22;6405;59.208;18.216;2024-02-26T14:17:32;3.80;99.90
12682;DHT22;6405;59.208;18.216;2024-02-26T14:19:58;3.90;99.90
12682;DHT22;6405;59.208;18.216;2024-02-26T14:22:25;3.80;99.90
12682;DHT22;6405;59.208;18.216;2024-02-26T14:24:53;3.80;99.90
12682;DHT22;6405;59.208;18.216;2024-02-26T14:27:19;3.80;99.90
12682;DHT22;6405;59.208;18.216;2024-02-26T14:29:48;3.90;99.90
12682;DHT22;6405;59.208;18.216;2024-02-26T14:32:14;4.00;99.90
12682;DHT22;6405;59.208;18.216;2024-02-26T14:34:40;3.80;99.90
12682;DHT22;6405;59.208;18.216;2024-02-26T14:37:06;3.80;99.90
12682;DHT22;6405;59.208;18.216;2024-02-26T14:39:32;3.70;99.90
12682;DHT22;6405;59.208;18.216;2024-02-26T14:41:58;3.70;99.90
12682;DHT22;6405;59.208;18.216;2024-02-26T14:44:25;3.70;99.90
12682;DHT22;6405;59.208;18.216;2024-02-26T14:46:51;3.70;99.90
12682;DHT22;6405;59.208;18.216;2024-02-26T14:49:17;3.60;99.90
12682;DHT22;6405;59.208;18.216;2024-02-26T14:51:43;3.60;99.90
12682;DHT22;6405;59.208;18.216;2024-02-26T14:54:12;3.60;99.90
12682;DHT22;6405;59.208;18.216;2024-02-26T14:56:38;3.50;99.90
12682;DHT22;6405;59.208;18.216;2024-02-26T14:59:04;3.60;99.90
12682;DHT22;6405;59.208;18.216;2024-02-26T15:01:30;3.50;99.90
12682;DHT22;6405;59.208;18.216;2024-02-26T15:03:55;3.50;99.90
12682;DHT22;6405;59.208;18.216;2024-02-26T15:06:22;3.40;99.90
12682;DHT22;6405;59.208;18.216;2024-02-26T15:08:48;3.30;99.90
12682;DHT22;6405;59.208;18.216;2024-02-26T15:11:14;3.30;99.90
12682;DHT22;6405;59.208;18.216;2024-02-26T15:13:39;3.20;99.90
12682;DHT22;6405;59.208;18.216;2024-02-26T15:16:05;3.20;99.90
12682;DHT22;6405;59.208;18.216;2024-02-26T15:18:31;3.10;99.90
12682;DHT22;6405;59.208;18.216;2024-02-26T15:20:57;3.10;99.90
12682;DHT22;6405;59.208;18.216;2024-02-26T15:23:23;3.00;99.90
12682;DHT22;6405;59.208;18.216;2024-02-26T15:25:49;2.90;99.90
12682;DHT22;6405;59.208;18.216;2024-02-26T15:28:15;2.90;99.90
12682;DHT22;6405;59.208;18.216;2024-02-26T15:30:42;2.90;99.90
12682;DHT22;6405;59.208;18.216;2024-02-26T15:33:07;2.80;99.90
12682;DHT22;6405;59.208;18.216;2024-02-26T15:35:34;2.80;99.90
12682;DHT22;6405;59.208;18.216;2024-02-26T15:38:00;2.80;99.90
12682;DHT22;6405;59.208;18.216;2024-02-26T15:40:26;2.60;99.90
12682;DHT22;6405;59.208;18.216;2024-02-26T15:42:52;2.60;99.90
12682;DHT22;6405;59.208;18.216;2024-02-26T15:45:18;2.50;99.90
12682;DHT22;6405;59.208;18.216;2024-02-26T15:47:44;2.60;99.90